Time;durP1;ratioP1;P1;durP2;ratioP2;P2;SDS_P1;SDS_P2;PMS_P1;PMS_P2;Temp;Humidity;BMP_temperature;BMP_pressure;BME280_temperature;BME280_humidity;BME280_pressure;Samples;Min_cycle;Max_cycle;Signal;HPM_P1;HPM_P2
2023/01/10 00:00:50;;;;;;;24.73;3.25;;;;;;;;;;5054883;28;20742;-50
2023/01/10 00:03:16;;;;;;;17.88;3.53;;;;;;;;;;5053081;28;20404;-51
2023/01/10 00:05:42;;;;;;;19.95;2.92;;;;;;;;;;5054393;28;20041;-51
2023/01/10 00:08:13;;;;;;;21.30;3.17;;;4.20;99.90;;;;;;5054192;28;20048;-49
2023/01/10 00:10:39;;;;;;;15.35;3.08;;;;;;;;;;5055698;28;20489;-49
2023/01/10 00:13:24;;;;;;;20.92;2.90;;;4.30;99.90;;;;;;5055249;28;20409;-50
2023/01/10 00:15:54;;;;;;;28.05;3.20;;;4.40;99.90;;;;;;5055114;28;20029;-52
2023/01/10 00:18:21;;;;;;;20.48;3.70;;;;;;;;;;5055683;28;20574;-47
2023/01/10 00:20:48;;;;;;;25.20;3.33;;;4.40;99.90;;;;;;5055009;28;20265;-52
2023/01/10 00:23:14;;;;;;;17.25;3.50;;;;;;;;;;5054943;28;20127;-51
2023/01/10 00:25:41;;;;;;;24.42;4.75;;;;;;;;;;5055323;28;20103;-53
2023/01/10 00:28:18;;;;;;;27.38;5.55;;;;;;;;;;5055306;28;20048;-50
2023/01/10 00:30:53;;;;;;;27.08;6.20;;;4.20;99.90;;;;;;5055855;28;20327;-52
2023/01/10 00:33:20;;;;;;;24.67;4.82;;;;;;;;;;5054263;28;20131;-52
2023/01/10 00:35:46;;;;;;;21.35;3.55;;;4.50;99.90;;;;;;5054598;28;20354;-48
2023/01/10 00:38:13;;;;;;;25.02;3.30;;;;;;;;;;5053438;28;20567;-51
2023/01/10 00:40:40;;;;;;;25.90;3.78;;;;;;;;;;5053067;28;20113;-51
2023/01/10 00:45:51;;;;;;;22.95;3.58;;;;;;;;;;5052494;28;20040;-49
2023/01/10 00:48:17;;;;;;;24.25;4.25;;;;;;;;;;5053378;28;20037;-52
2023/01/10 00:50:43;;;;;;;21.58;3.20;;;;;;;;;;5053426;28;20508;-49
2023/01/10 00:53:09;;;;;;;17.90;4.18;;;;;;;;;;5052502;28;20044;-51
2023/01/10 00:55:35;;;;;;;25.10;4.03;;;;;;;;;;5053064;28;21203;-52
2023/01/10 00:58:02;;;;;;;23.33;4.18;;;;;;;;;;5052981;28;20044;-52
2023/01/10 01:00:28;;;;;;;23.52;3.50;;;;;;;;;;5053021;28;20098;-51
2023/01/10 01:02:54;;;;;;;25.42;3.20;;;4.70;99.90;;;;;;5052196;28;20033;-51
2023/01/10 01:05:20;;;;;;;21.08;3.72;;;;;;;;;;5052824;28;20045;-52
2023/01/10 01:07:50;;;;;;;22.23;3.78;;;4.70;99.90;;;;;;5051080;28;20189;-52
2023/01/10 01:10:26;;;;;;;20.95;3.70;;;4.80;99.90;;;;;;5053373;28;20090;-51
2023/01/10 01:12:57;;;;;;;27.63;4.72;;;4.70;99.90;;;;;;5052175;28;20554;-49
2023/01/10 01:15:24;;;;;;;20.77;3.03;;;;;;;;;;5052474;28;20788;-50
2023/01/10 01:17:50;;;;;;;17.38;2.35;;;;;;;;;;5052461;28;20590;-51
2023/01/10 01:20:16;;;;;;;23.92;4.22;;;;;;;;;;5053647;28;20055;-52
2023/01/10 01:22:43;;;;;;;18.45;3.08;;;;;;;;;;5051759;28;20063;-52
2023/01/10 01:25:09;;;;;;;32.58;3.35;;;;;;;;;;5051443;28;20062;-51
2023/01/10 01:27:36;;;;;;;25.40;3.28;;;;;;;;;;5052738;28;20063;-51
2023/01/10 01:30:04;;;;;;;19.60;3.75;;;4.90;99.90;;;;;;5052924;28;20131;-52
2023/01/10 01:32:30;;;;;;;32.63;4.32;;;;;;;;;;5053187;28;20079;-53
2023/01/10 01:34:56;;;;;;;24.88;3.78;;;;;;;;;;5051021;28;20047;-51
2023/01/10 01:37:23;;;;;;;18.60;2.80;;;;;;;;;;5052446;28;20091;-47
2023/01/10 01:39:49;;;;;;;19.80;3.92;;;;;;;;;;5052416;28;20044;-50
2023/01/10 01:42:20;;;;;;;19.02;3.00;;;5.00;99.90;;;;;;5053343;28;20049;-52
2023/01/10 01:45:08;;;;;;;23.48;3.33;;;5.00;99.90;;;;;;5052534;28;20040;-49
2023/01/10 01:47:39;;;;;;;17.90;3.28;;;5.10;99.90;;;;;;5053908;28;20040;-50
2023/01/10 01:50:12;;;;;;;19.48;3.55;;;5.10;99.90;;;;;;5053210;28;20185;-48
2023/01/10 01:52:39;;;;;;;19.55;3.33;;;;;;;;;;5052577;28;20445;-50
2023/01/10 01:55:05;;;;;;;18.30;3.10;;;5.10;99.90;;;;;;5052050;28;20036;-50
2023/01/10 01:57:32;;;;;;;20.23;3.30;;;5.30;99.90;;;;;;5050980;28;20045;-51
2023/01/10 02:00:01;;;;;;;18.25;2.85;;;5.50;99.90;;;;;;5049246;28;20712;-52
2023/01/10 02:02:35;;;;;;;25.65;4.22;;;5.40;99.90;;;;;;5051510;28;20049;-53
2023/01/10 02:05:13;;;;;;;17.00;2.67;;;5.30;99.90;;;;;;5050021;28;20099;-51
2023/01/10 02:07:44;;;;;;;21.38;3.03;;;5.40;99.90;;;;;;5050404;28;20067;-50
2023/01/10 02:10:37;;;;;;;19.23;3.03;;;5.50;99.90;;;;;;5050504;28;20621;-50
2023/01/10 02:13:05;;;;;;;21.33;3.20;;;5.40;99.90;;;;;;5051098;28;20040;-50
2023/01/10 02:15:32;;;;;;;23.38;3.65;;;;;;;;;;5051082;28;20778;-50
2023/01/10 02:17:59;;;;;;;21.98;3.70;;;5.40;99.90;;;;;;5050483;28;20040;-50
2023/01/10 02:20:27;;;;;;;26.80;3.13;;;5.40;99.90;;;;;;5051107;28;20132;-50
2023/01/10 02:23:14;;;;;;;21.77;3.90;;;5.30;99.90;;;;;;5050738;28;20045;-50
2023/01/10 02:26:15;;;;;;;25.05;2.88;;;5.40;99.90;;;;;;5050862;28;20166;-47
2023/01/10 02:29:11;;;;;;;23.08;3.10;;;5.20;99.90;;;;;;5050025;28;20381;-50
2023/01/10 02:31:37;;;;;;;20.98;2.45;;;;;;;;;;5051247;28;20595;-51
2023/01/10 02:34:06;;;;;;;19.05;2.78;;;5.10;99.90;;;;;;5050529;28;20052;-51
2023/01/10 02:36:43;;;;;;;16.40;2.85;;;5.00;99.90;;;;;;5051124;28;20036;-51
2023/01/10 02:39:26;;;;;;;22.77;3.00;;;5.00;99.90;;;;;;5050542;28;20040;-50
2023/01/10 02:42:21;;;;;;;23.20;4.05;;;5.10;99.90;;;;;;5050787;28;20045;-50
2023/01/10 02:44:56;;;;;;;23.67;3.53;;;5.00;99.90;;;;;;5042682;28;20053;-50
2023/01/10 02:47:22;;;;;;;20.33;2.88;;;;;;;;;;5052198;28;20128;-50
2023/01/10 02:49:49;;;;;;;27.20;4.50;;;5.30;99.90;;;;;;5052127;28;20045;-49
2023/01/10 02:52:22;;;;;;;17.83;2.65;;;5.20;99.90;;;;;;5052238;28;20100;-51
2023/01/10 02:54:54;;;;;;;18.02;3.08;;;5.30;99.90;;;;;;5051847;28;20044;-51
2023/01/10 02:57:51;;;;;;;20.08;3.70;;;5.30;99.90;;;;;;5051795;28;20036;-51
2023/01/10 03:00:41;;;;;;;23.02;3.30;;;5.30;99.90;;;;;;5052655;28;20517;-51
2023/01/10 03:03:32;;;;;;;26.63;4.22;;;5.60;99.90;;;;;;5052190;28;20041;-50
2023/01/10 03:06:14;;;;;;;25.08;3.33;;;5.40;99.90;;;;;;5052316;28;20612;-51
2023/01/10 03:08:49;;;;;;;24.40;3.40;;;5.40;99.90;;;;;;5054107;28;20040;-51
2023/01/10 03:11:15;;;;;;;22.75;3.30;;;5.50;99.90;;;;;;5054651;28;20051;-51
2023/01/10 03:13:56;;;;;;;19.08;2.85;;;5.40;99.90;;;;;;5054543;28;20032;-51
2023/01/10 03:16:26;;;;;;;26.35;3.35;;;5.50;99.90;;;;;;5054767;28;20048;-50
2023/01/10 03:18:55;;;;;;;21.60;4.05;;;5.50;99.90;;;;;;5054725;28;20123;-52
2023/01/10 03:21:22;;;;;;;23.15;3.58;;;5.40;99.90;;;;;;5054542;28;20803;-50
2023/01/10 03:23:52;;;;;;;22.52;3.88;;;5.40;99.90;;;;;;5053925;28;20032;-50
2023/01/10 03:26:27;;;;;;;22.58;3.10;;;5.70;99.90;;;;;;5053723;28;20067;-52
2023/01/10 03:29:02;;;;;;;26.88;4.40;;;5.60;99.90;;;;;;5054086;28;20060;-50
2023/01/10 03:31:35;;;;;;;24.30;3.42;;;5.70;99.90;;;;;;5055024;28;20123;-51
2023/01/10 03:34:01;;;;;;;25.05;3.22;;;5.60;99.90;;;;;;5054910;28;20097;-50
2023/01/10 03:36:48;;;;;;;24.13;3.70;;;6.80;99.90;;;;;;5054053;28;20052;-49
2023/01/10 03:39:14;;;;;;;21.73;2.90;;;;;;;;;;5053998;28;20056;-52
2023/01/10 03:41:49;;;;;;;22.48;3.15;;;5.70;99.90;;;;;;5053941;28;20109;-48
2023/01/10 03:44:43;;;;;;;30.25;3.67;;;5.70;99.90;;;;;;5054098;28;20078;-50
2023/01/10 03:47:09;;;;;;;23.27;3.60;;;;;;;;;;5053684;28;20040;-50
2023/01/10 03:49:39;;;;;;;23.17;3.25;;;5.90;99.90;;;;;;5054610;28;20152;-51
2023/01/10 03:52:07;;;;;;;19.73;3.35;;;5.70;99.90;;;;;;5053591;28;20032;-52
2023/01/10 03:54:33;;;;;;;21.67;3.08;;;;;;;;;;5054140;28;20048;-50
2023/01/10 03:56:59;;;;;;;17.50;3.20;;;5.80;99.90;;;;;;5055363;28;20133;-51
2023/01/10 03:59:28;;;;;;;18.98;3.17;;;5.70;99.90;;;;;;5055940;28;20120;-51
2023/01/10 04:01:55;;;;;;;20.65;2.97;;;5.50;99.90;;;;;;5054435;28;20040;-51
2023/01/10 04:04:21;;;;;;;20.98;2.90;;;;;;;;;;5087696;28;20160;-51
2023/01/10 04:06:47;;;;;;;20.90;3.67;;;;;;;;;;5054744;28;20053;-50
2023/01/10 04:09:13;;;;;;;21.85;2.80;;;5.30;99.90;;;;;;5056105;28;20037;-52
2023/01/10 04:11:39;;;;;;;23.33;3.53;;;;;;;;;;5055357;28;20105;-52
2023/01/10 04:14:05;;;;;;;17.20;4.07;;;;;;;;;;5055019;28;20451;-52
2023/01/10 04:16:32;;;;;;;26.27;4.13;;;;;;;;;;5056270;28;20045;-51
2023/01/10 04:18:58;;;;;;;21.98;3.38;;;;;;;;;;5056702;28;20436;-52
2023/01/10 04:21:24;;;;;;;26.27;3.83;;;;;;;;;;5054375;28;20501;-51
2023/01/10 04:23:50;;;;;;;27.85;3.53;;;;;;;;;;5054161;28;20462;-49
2023/01/10 04:26:16;;;;;;;24.55;3.08;;;;;;;;;;5054230;28;20421;-52
2023/01/10 04:28:42;;;;;;;21.92;4.00;;;;;;;;;;5054064;28;20110;-50
2023/01/10 04:31:08;;;;;;;20.67;3.90;;;;;;;;;;5051790;28;20075;-51
2023/01/10 04:33:34;;;;;;;23.88;3.85;;;;;;;;;;5052670;28;20033;-50
2023/01/10 04:36:00;;;;;;;24.45;5.15;;;;;;;;;;5054237;28;20595;-52
2023/01/10 04:38:27;;;;;;;29.95;6.00;;;;;;;;;;5049865;28;20033;-48
2023/01/10 04:40:56;;;;;;;24.05;3.88;;;5.30;99.90;;;;;;5051773;28;20056;-48
2023/01/10 04:43:23;;;;;;;28.92;3.95;;;5.50;99.90;;;;;;5052479;28;20048;-52
2023/01/10 04:45:49;;;;;;;19.77;3.10;;;5.60;99.90;;;;;;5053471;28;20044;-51
2023/01/10 04:48:15;;;;;;;23.58;3.83;;;;;;;;;;5053044;28;20094;-50
2023/01/10 04:50:41;;;;;;;27.83;3.38;;;5.50;99.90;;;;;;5053898;28;20060;-50
2023/01/10 04:53:07;;;;;;;24.33;4.25;;;;;;;;;;5052186;28;20040;-51
2023/01/10 04:55:34;;;;;;;14.50;2.42;;;;;;;;;;5052792;28;20068;-47
2023/01/10 04:58:01;;;;;;;28.42;3.83;;;5.60;99.90;;;;;;5052144;28;20147;-50
2023/01/10 05:00:27;;;;;;;16.17;2.15;;;;;;;;;;5053135;28;20044;-50
2023/01/10 05:02:56;;;;;;;16.33;2.50;;;5.50;99.90;;;;;;5051483;28;20166;-52
2023/01/10 05:05:23;;;;;;;16.10;2.35;;;;;;;;;;5052856;28;20044;-50
2023/01/10 05:07:49;;;;;;;12.13;2.45;;;;;;;;;;5052459;28;20044;-52
2023/01/10 05:10:15;;;;;;;17.20;2.83;;;5.60;99.90;;;;;;5051779;28;20164;-51
2023/01/10 05:12:41;;;;;;;25.30;3.55;;;5.60;99.90;;;;;;5054319;28;20070;-49
2023/01/10 05:15:07;;;;;;;18.27;3.38;;;;;;;;;;5054094;28;20322;-50
2023/01/10 05:17:33;;;;;;;15.88;3.00;;;;;;;;;;5055027;28;20390;-50
2023/01/10 05:20:00;;;;;;;23.33;4.00;;;;;;;;;;5055664;28;20051;-51
2023/01/10 05:22:26;;;;;;;22.02;3.75;;;;;;;;;;5054802;28;20163;-46
2023/01/10 05:24:52;;;;;;;23.17;3.28;;;;;;;;;;5055329;28;20048;-51
2023/01/10 05:27:18;;;;;;;18.63;3.55;;;;;;;;;;5053716;28;20527;-48
2023/01/10 05:29:44;;;;;;;17.38;2.97;;;5.80;99.90;;;;;;5054283;28;20068;-52
2023/01/10 05:32:10;;;;;;;21.40;3.00;;;5.70;99.90;;;;;;5054313;28;20040;-51
2023/01/10 05:34:36;;;;;;;12.32;2.33;;;;;;;;;;5055112;28;20493;-51
2023/01/10 05:37:02;;;;;;;15.10;2.80;;;5.60;99.90;;;;;;5054432;28;20047;-51
2023/01/10 05:39:28;;;;;;;17.35;2.75;;;5.50;99.90;;;;;;5053119;28;20040;-53
2023/01/10 05:41:54;;;;;;;17.60;2.85;;;5.70;99.90;;;;;;5053456;28;20111;-52
2023/01/10 05:44:20;;;;;;;18.40;3.17;;;;;;;;;;5052799;28;20045;-51
2023/01/10 05:46:45;;;;;;;15.95;2.25;;;5.70;99.90;;;;;;5052589;28;20036;-51
2023/01/10 05:49:11;;;;;;;18.38;2.60;;;5.60;99.90;;;;;;5053021;28;20051;-52
2023/01/10 05:51:37;;;;;;;18.60;2.63;;;5.60;99.90;;;;;;5053640;28;20524;-52
2023/01/10 05:54:03;;;;;;;20.85;2.75;;;;;;;;;;5053102;28;20036;-53
2023/01/10 05:56:29;;;;;;;15.85;2.42;;;5.50;99.90;;;;;;5052363;28;20523;-53
2023/01/10 05:58:55;;;;;;;15.20;2.63;;;5.60;99.90;;;;;;5051698;28;20044;-53
2023/01/10 06:01:24;;;;;;;16.50;2.40;;;;;;;;;;5051846;28;20139;-53
2023/01/10 06:03:50;;;;;;;10.50;2.10;;;5.70;99.90;;;;;;5052492;28;20378;-51
2023/01/10 06:06:15;;;;;;;17.23;2.55;;;5.60;99.90;;;;;;5051984;28;20040;-53
2023/01/10 06:08:41;;;;;;;14.10;2.28;;;;;;;;;;5051618;28;20113;-53
2023/01/10 06:11:08;;;;;;;14.25;2.17;;;;;;;;;;5051755;28;20041;-52
2023/01/10 06:13:33;;;;;;;13.65;1.98;;;5.70;99.90;;;;;;5052062;28;23179;-53
2023/01/10 06:15:59;;;;;;;16.80;3.90;;;5.50;99.90;;;;;;5051949;28;20481;-50
2023/01/10 06:18:25;;;;;;;14.52;2.15;;;;;;;;;;5051976;28;20144;-52
2023/01/10 06:20:51;;;;;;;16.23;2.13;;;;;;;;;;5052241;28;20047;-52
2023/01/10 06:23:18;;;;;;;14.55;2.45;;;;;;;;;;5051645;28;20072;-53
2023/01/10 06:25:44;;;;;;;11.90;2.08;;;5.60;99.90;;;;;;5052117;28;20197;-53
2023/01/10 06:28:12;;;;;;;9.95;2.35;;;5.70;99.90;;;;;;5049985;28;20046;-52
2023/01/10 06:30:39;;;;;;;12.70;2.53;;;;;;;;;;5050793;28;20528;-53
2023/01/10 06:33:07;;;;;;;18.10;3.42;;;5.60;99.90;;;;;;5051196;28;20072;-53
2023/01/10 06:35:33;;;;;;;17.95;2.40;;;;;;;;;;5051833;28;20032;-52
2023/01/10 06:37:59;;;;;;;18.35;2.35;;;5.20;99.90;;;;;;5051477;28;20278;-54
2023/01/10 06:40:26;;;;;;;17.02;2.50;;;5.40;99.90;;;;;;5053764;28;20152;-53
2023/01/10 06:42:52;;;;;;;16.92;2.53;;;;;;;;;;5051382;28;20097;-54
2023/01/10 06:45:18;;;;;;;19.50;2.60;;;5.20;99.90;;;;;;5052681;28;20052;-55
2023/01/10 06:47:44;;;;;;;14.05;3.08;;;;;;;;;;5052799;28;20036;-53
2023/01/10 06:50:12;;;;;;;17.75;3.10;;;5.10;99.90;;;;;;5053790;28;20183;-54
2023/01/10 06:52:38;;;;;;;15.20;2.55;;;;;;;;;;5053475;28;20040;-54
2023/01/10 06:55:05;;;;;;;15.05;2.65;;;4.90;99.90;;;;;;5052460;28;20513;-54
2023/01/10 06:57:34;;;;;;;30.08;3.55;;;;;;;;;;5052086;28;20086;-54
2023/01/10 07:00:05;;;;;;;26.02;3.95;;;5.00;99.90;;;;;;5052478;28;20048;-53
2023/01/10 07:02:30;;;;;;;15.50;3.28;;;5.00;99.90;;;;;;5051628;28;20040;-54
2023/01/10 07:04:57;;;;;;;22.02;3.88;;;;;;;;;;5052298;28;20056;-53
2023/01/10 07:07:23;;;;;;;29.92;5.25;;;;;;;;;;5051786;28;20037;-54
2023/01/10 07:09:49;;;;;;;23.20;3.83;;;;;;;;;;5052036;28;20201;-54
2023/01/10 07:12:15;;;;;;;24.40;4.53;;;;;;;;;;5051043;28;20373;-55
2023/01/10 07:14:41;;;;;;;29.27;3.58;;;;;;;;;;5051229;28;20347;-55
2023/01/10 07:17:07;;;;;;;28.80;4.38;;;;;;;;;;5051689;28;20050;-55
2023/01/10 07:19:33;;;;;;;27.27;4.28;;;;;;;;;;5052980;28;20062;-55
2023/01/10 07:21:59;;;;;;;23.10;4.57;;;5.30;99.90;;;;;;5050815;28;20041;-55
2023/01/10 07:24:25;;;;;;;23.38;5.20;;;;;;;;;;5051250;28;20059;-55
2023/01/10 07:26:55;;;;;;;30.30;6.05;;;5.40;99.90;;;;;;5050182;28;20040;-55
2023/01/10 07:29:21;;;;;;;26.50;4.15;;;;;;;;;;5050823;28;20043;-55
2023/01/10 07:31:47;;;;;;;26.33;4.88;;;;;;;;;;5051568;28;20125;-55
2023/01/10 07:34:13;;;;;;;27.33;4.85;;;;;;;;;;5049998;28;20041;-55
2023/01/10 07:36:39;;;;;;;38.38;5.13;;;;;;;;;;5051917;28;20040;-55
2023/01/10 07:39:05;;;;;;;40.13;5.68;;;;;;;;;;5051267;28;21072;-55
2023/01/10 07:41:31;;;;;;;29.05;4.80;;;;;;;;;;5052295;28;20032;-55
2023/01/10 07:43:57;;;;;;;33.70;5.05;;;;;;;;;;5051542;28;20461;-55
2023/01/10 07:46:23;;;;;;;26.13;4.38;;;5.40;99.90;;;;;;5051830;28;20052;-55
2023/01/10 07:48:49;;;;;;;22.65;4.70;;;5.40;99.90;;;;;;5050910;28;20040;-55
2023/01/10 07:51:15;;;;;;;21.02;4.30;;;;;;;;;;5052275;28;20434;-55
2023/01/10 07:53:41;;;;;;;22.98;4.32;;;;;;;;;;5053996;28;20055;-55
2023/01/10 07:56:07;;;;;;;22.95;4.05;;;;;;;;;;5054747;28;20513;-54
2023/01/10 07:58:33;;;;;;;34.00;6.15;;;;;;;;;;5055654;28;20063;-54
2023/01/10 08:01:01;;;;;;;30.48;5.32;;;5.60;99.90;;;;;;5055947;28;20725;-54
2023/01/10 08:03:28;;;;;;;30.42;5.43;;;;;;;;;;5055427;28;20139;-54
2023/01/10 08:06:02;;;;;;;31.58;4.38;;;5.50;99.90;;;;;;5056154;28;20299;-54
2023/01/10 08:08:29;;;;;;;25.25;5.03;;;5.50;99.90;;;;;;5056867;28;20048;-55
2023/01/10 08:10:55;;;;;;;33.75;5.60;;;5.50;99.90;;;;;;5055931;28;20072;-54
2023/01/10 08:13:22;;;;;;;36.35;5.05;;;5.40;99.90;;;;;;5056032;28;20044;-54
2023/01/10 08:15:51;;;;;;;32.53;5.20;;;;;;;;;;5055491;28;20097;-54
2023/01/10 08:18:18;;;;;;;37.05;5.32;;;5.30;99.90;;;;;;5054782;28;20055;-55
2023/01/10 08:20:46;;;;;;;24.42;4.80;;;;;;;;;;5056625;28;20040;-55
2023/01/10 08:23:13;;;;;;;24.55;4.53;;;;;;;;;;5055085;28;20051;-55
2023/01/10 08:25:39;;;;;;;29.90;5.25;;;;;;;;;;5053233;28;20421;-54
2023/01/10 08:28:05;;;;;;;27.30;5.55;;;;;;;;;;5053909;28;20121;-54
2023/01/10 08:30:31;;;;;;;28.40;3.97;;;;;;;;;;5053991;28;20413;-55
2023/01/10 08:32:58;;;;;;;35.00;5.68;;;;;;;;;;5053692;28;20099;-55
2023/01/10 08:35:24;;;;;;;33.42;5.15;;;5.60;99.90;;;;;;5054647;28;20040;-54
2023/01/10 08:37:50;;;;;;;29.98;5.20;;;;;;;;;;5053732;28;20074;-55
2023/01/10 08:40:16;;;;;;;34.63;6.10;;;5.90;99.90;;;;;;5053688;28;20036;-55
2023/01/10 08:42:42;;;;;;;30.92;5.38;;;;;;;;;;5053635;28;20047;-54
2023/01/10 08:45:08;;;;;;;26.92;4.72;;;;;;;;;;5054670;28;20049;-54
2023/01/10 08:47:34;;;;;;;31.83;6.18;;;6.00;99.90;;;;;;5054011;28;20098;-57
2023/01/10 08:50:01;;;;;;;28.52;4.85;;;6.00;99.90;;;;;;5054233;28;20052;-55
2023/01/10 08:52:26;;;;;;;31.58;5.72;;;5.90;99.90;;;;;;5053820;28;20329;-54
2023/01/10 08:54:52;;;;;;;35.33;5.22;;;5.90;99.90;;;;;;5054953;28;20688;-55
2023/01/10 08:57:18;;;;;;;31.17;5.10;;;6.00;99.90;;;;;;5052020;28;20043;-53
2023/01/10 08:59:44;;;;;;;31.52;4.78;;;6.10;99.90;;;;;;5053236;28;20048;-55
2023/01/10 09:02:13;;;;;;;34.28;5.35;;;6.10;99.90;;;;;;5052137;28;20046;-54
2023/01/10 09:04:38;;;;;;;24.05;4.28;;;6.10;99.90;;;;;;5053303;28;20127;-55
2023/01/10 09:07:04;;;;;;;22.15;5.63;;;6.10;99.90;;;;;;5053141;28;20131;-54
2023/01/10 09:09:30;;;;;;;26.95;5.20;;;6.00;99.90;;;;;;5052836;28;20064;-54
2023/01/10 09:11:56;;;;;;;22.70;4.60;;;;;;;;;;5052632;28;20044;-55
2023/01/10 09:14:22;;;;;;;26.52;4.60;;;6.10;99.90;;;;;;5055026;28;20044;-55
2023/01/10 09:16:50;;;;;;;28.35;4.75;;;6.00;99.90;;;;;;5052743;28;20044;-56
2023/01/10 09:19:16;;;;;;;27.55;5.35;;;5.90;99.90;;;;;;5053452;28;20504;-54
2023/01/10 09:21:42;;;;;;;28.67;5.30;;;6.10;99.90;;;;;;5054847;28;20845;-55
2023/01/10 09:24:08;;;;;;;23.08;4.10;;;6.00;99.90;;;;;;5054239;28;20043;-56
2023/01/10 09:26:34;;;;;;;21.05;3.47;;;6.00;99.90;;;;;;5055192;28;20135;-54
2023/01/10 09:29:00;;;;;;;17.90;3.53;;;;;;;;;;5052957;28;20135;-55
2023/01/10 09:31:26;;;;;;;24.85;3.83;;;;;;;;;;5054269;28;20411;-55
2023/01/10 09:33:52;;;;;;;19.98;3.75;;;6.20;99.90;;;;;;5053621;28;20830;-52
2023/01/10 09:36:18;;;;;;;25.00;3.80;;;6.20;99.90;;;;;;5054974;28;20040;-55
2023/01/10 09:38:44;;;;;;;21.20;3.22;;;6.20;99.90;;;;;;5054279;28;20078;-55
2023/01/10 09:41:41;;;;;;;19.25;3.95;;;6.20;99.90;;;;;;5053646;28;20123;-54
2023/01/10 09:44:34;;;;;;;26.45;6.03;;;6.20;99.90;;;;;;5053461;28;20059;-54
2023/01/10 09:47:04;;;;;;;23.08;4.60;;;6.20;99.90;;;;;;5052601;28;20048;-54
2023/01/10 09:49:57;;;;;;;20.33;4.05;;;6.30;99.90;;;;;;5054085;28;20119;-53
2023/01/10 09:52:30;;;;;;;24.48;4.50;;;6.50;99.90;;;;;;5052868;28;20468;-53
2023/01/10 09:54:59;;;;;;;26.48;3.75;;;6.30;99.90;;;;;;5052044;28;20444;-55
2023/01/10 09:57:26;;;;;;;23.20;3.75;;;;;;;;;;5052659;28;20877;-55
2023/01/10 09:59:53;;;;;;;31.85;4.70;;;6.50;99.90;;;;;;5053556;28;20077;-54
2023/01/10 10:02:41;;;;;;;28.20;5.38;;;6.60;99.90;;;;;;5052730;28;20044;-54
2023/01/10 10:05:11;;;;;;;22.98;5.28;;;6.40;99.90;;;;;;5053557;28;20032;-53
2023/01/10 10:07:36;;;;;;;26.92;4.18;;;6.50;99.90;;;;;;5053142;28;20549;-55
2023/01/10 10:10:04;;;;;;;21.17;4.10;;;6.50;99.90;;;;;;5052860;28;20064;-55
2023/01/10 10:12:30;;;;;;;24.95;5.57;;;;;;;;;;5051592;28;20129;-54
2023/01/10 10:15:15;;;;;;;28.30;4.85;;;6.70;99.90;;;;;;5052586;28;20036;-54
2023/01/10 10:17:49;;;;;;;27.85;4.45;;;6.50;99.90;;;;;;5052658;28;20044;-58
2023/01/10 10:20:27;;;;;;;23.30;4.22;;;6.70;99.90;;;;;;5052771;28;20048;-54
2023/01/10 10:23:11;;;;;;;23.65;4.30;;;6.70;99.90;;;;;;5051593;28;20453;-53
2023/01/10 10:25:48;;;;;;;27.83;5.32;;;6.70;99.90;;;;;;5052139;28;20668;-53
2023/01/10 10:28:23;;;;;;;28.08;5.88;;;6.80;99.90;;;;;;5051298;28;20535;-55
2023/01/10 10:31:01;;;;;;;29.08;5.45;;;6.60;99.90;;;;;;5051942;28;20076;-54
2023/01/10 10:33:41;;;;;;;24.55;5.13;;;6.70;99.90;;;;;;5052853;28;20041;-55
2023/01/10 10:36:39;;;;;;;28.02;5.07;;;6.80;99.90;;;;;;5052882;28;20045;-55
2023/01/10 10:39:08;;;;;;;27.10;4.53;;;6.80;99.90;;;;;;5051534;28;20055;-54
2023/01/10 10:41:39;;;;;;;24.83;4.47;;;6.80;99.90;;;;;;5052307;28;20176;-54
2023/01/10 10:44:35;;;;;;;20.65;4.50;;;6.80;99.90;;;;;;5051675;28;20123;-55
2023/01/10 10:47:01;;;;;;;25.77;4.70;;;6.60;99.90;;;;;;5051963;28;20044;-54
2023/01/10 10:49:35;;;;;;;19.70;4.13;;;6.80;99.90;;;;;;5053295;28;20838;-54
2023/01/10 10:52:07;;;;;;;25.08;4.80;;;6.90;99.90;;;;;;5052782;28;20048;-55
2023/01/10 10:54:35;;;;;;;30.02;4.97;;;6.90;99.90;;;;;;5052176;28;20075;-54
2023/01/10 10:57:01;;;;;;;26.58;5.03;;;6.80;99.90;;;;;;5051259;28;20048;-52
2023/01/10 10:59:27;;;;;;;29.88;4.97;;;6.70;99.90;;;;;;5051689;28;20050;-53
2023/01/10 11:01:53;;;;;;;25.88;4.68;;;6.80;99.90;;;;;;5051643;28;20044;-55
2023/01/10 11:04:22;;;;;;;28.02;5.00;;;6.70;99.90;;;;;;5050453;28;20041;-54
2023/01/10 11:06:48;;;;;;;26.67;5.60;;;6.90;99.90;;;;;;5050960;28;20747;-54
2023/01/10 11:09:27;;;;;;;33.13;5.88;;;6.90;99.90;;;;;;5051135;28;20082;-56
2023/01/10 11:11:55;;;;;;;29.38;5.78;;;6.80;99.90;;;;;;5050989;28;20107;-54
2023/01/10 11:14:40;;;;;;;29.52;6.53;;;6.60;99.90;;;;;;5049915;28;20235;-54
2023/01/10 11:17:22;;;;;;;34.33;6.90;;;6.90;99.90;;;;;;5050669;28;20143;-53
2023/01/10 11:19:56;;;;;;;34.95;6.93;;;6.90;99.90;;;;;;5053078;28;20037;-54
2023/01/10 11:22:23;;;;;;;36.63;6.43;;;7.00;99.90;;;;;;5051811;28;20037;-53
2023/01/10 11:24:54;;;;;;;34.13;7.53;;;6.80;99.90;;;;;;5051573;28;20074;-55
2023/01/10 11:27:24;;;;;;;26.50;6.43;;;6.80;99.90;;;;;;5051587;28;20137;-55
2023/01/10 11:30:00;;;;;;;29.67;6.40;;;6.90;99.90;;;;;;5055649;28;20606;-54
2023/01/10 11:32:33;;;;;;;34.25;9.02;;;7.00;99.90;;;;;;5053793;28;20044;-54
2023/01/10 11:35:02;;;;;;;26.50;6.15;;;6.90;99.90;;;;;;5054208;28;20044;-53
2023/01/10 11:37:31;;;;;;;30.40;7.75;;;8.90;99.90;;;;;;5054035;28;20036;-55
2023/01/10 11:40:19;;;;;;;37.22;7.38;;;6.90;99.90;;;;;;5055403;28;20049;-54
2023/01/10 11:42:46;;;;;;;34.97;7.85;;;6.90;99.90;;;;;;5056177;28;20342;-55
2023/01/10 11:45:17;;;;;;;40.58;9.23;;;6.90;99.90;;;;;;5055948;28;20040;-55
2023/01/10 11:48:01;;;;;;;34.03;8.38;;;6.90;99.90;;;;;;5055742;28;20036;-55
2023/01/10 11:50:40;;;;;;;29.80;8.48;;;6.90;99.90;;;;;;5056069;28;20044;-55
2023/01/10 11:53:22;;;;;;;32.40;8.02;;;6.90;99.90;;;;;;5055718;28;20467;-55
2023/01/10 11:55:48;;;;;;;36.15;8.50;;;6.80;99.90;;;;;;5055043;28;20104;-53
2023/01/10 11:58:14;;;;;;;29.15;8.20;;;6.80;99.90;;;;;;5053355;28;20143;-53
2023/01/10 12:00:45;;;;;;;36.13;8.25;;;6.90;99.90;;;;;;5055893;28;20446;-54
2023/01/10 12:03:28;;;;;;;33.67;7.88;;;7.00;99.90;;;;;;5054432;28;20698;-54
2023/01/10 12:06:16;;;;;;;32.80;7.30;;;6.90;99.90;;;;;;5055258;28;20382;-54
2023/01/10 12:08:43;;;;;;;27.38;7.05;;;6.80;99.90;;;;;;5054131;28;20428;-55
2023/01/10 12:11:12;;;;;;;33.28;7.28;;;6.80;99.90;;;;;;5053260;28;20040;-54
2023/01/10 12:13:52;;;;;;;32.40;6.45;;;6.60;99.90;;;;;;5053685;28;20037;-55
2023/01/10 12:16:30;;;;;;;28.58;7.35;;;6.60;99.90;;;;;;5054491;28;20075;-55
2023/01/10 12:19:01;;;;;;;27.88;6.88;;;6.60;99.90;;;;;;5053479;28;20339;-56
2023/01/10 12:21:41;;;;;;;29.85;7.75;;;6.60;99.90;;;;;;5053167;28;20732;-55
2023/01/10 12:24:30;;;;;;;22.13;6.93;;;6.60;99.90;;;;;;5053403;28;20575;-55
2023/01/10 12:26:58;;;;;;;27.55;7.68;;;6.60;99.90;;;;;;5054566;28;20131;-53
2023/01/10 12:29:28;;;;;;;29.40;6.18;;;6.50;99.90;;;;;;5053883;28;20044;-54
2023/01/10 12:31:57;;;;;;;26.40;7.05;;;6.60;99.90;;;;;;5053669;28;20052;-55
2023/01/10 12:34:27;;;;;;;27.98;7.28;;;6.50;99.90;;;;;;5053320;28;20125;-55
2023/01/10 12:37:24;;;;;;;32.33;6.45;;;6.50;99.90;;;;;;5053844;28;20051;-55
2023/01/10 12:40:01;;;;;;;36.03;6.88;;;6.70;99.90;;;;;;5051169;28;20618;-55
2023/01/10 12:45:55;;;;;;;28.25;6.45;;;6.40;99.90;;;;;;5053694;28;20126;-55
2023/01/10 12:48:53;;;;;;;25.08;6.15;;;6.30;99.90;;;;;;5052661;28;20045;-55
2023/01/10 12:51:23;;;;;;;26.65;6.20;;;6.50;99.90;;;;;;5055090;28;20040;-56
2023/01/10 12:54:02;;;;;;;28.80;6.57;;;6.40;99.90;;;;;;5043412;28;20595;-55
2023/01/10 12:56:29;;;;;;;21.17;5.45;;;6.40;99.90;;;;;;5053830;28;20040;-54
2023/01/10 12:59:15;;;;;;;30.02;7.53;;;6.30;99.90;;;;;;5053093;28;20041;-55
2023/01/10 13:01:42;;;;;;;29.92;7.03;;;6.30;99.90;;;;;;5053105;28;20115;-55
2023/01/10 13:04:15;;;;;;;23.15;6.78;;;6.60;99.90;;;;;;5033756;28;20555;-53
2023/01/10 13:06:43;;;;;;;28.92;6.45;;;6.40;99.90;;;;;;5052639;28;20063;-54
2023/01/10 13:09:14;;;;;;;26.45;6.20;;;6.30;99.90;;;;;;5052585;28;20044;-54
2023/01/10 13:11:58;;;;;;;24.13;5.85;;;6.60;99.90;;;;;;5053196;28;20412;-52
2023/01/10 13:14:31;;;;;;;24.90;6.03;;;6.50;99.90;;;;;;5054578;28;20074;-55
2023/01/10 13:17:01;;;;;;;;;;;6.50;99.90;;;;;;5055329;28;20053;-55
2023/01/10 13:19:27;;;;;;;29.05;6.40;;;6.40;99.90;;;;;;5055559;28;19925;-55
2023/01/10 13:22:34;;;;;;;27.33;5.90;;;6.30;99.90;;;;;;5055648;28;20136;-55
2023/01/10 13:25:01;;;;;;;29.52;5.80;;;6.20;99.90;;;;;;5000253;28;20186;-55
2023/01/10 13:27:34;;;;;;;32.47;7.97;;;6.30;99.90;;;;;;4995745;28;20199;-55
2023/01/10 13:30:02;;;;;;;35.20;5.82;;;6.60;99.90;;;;;;5033170;28;20547;-54
2023/01/10 13:32:32;;;;;;;27.27;5.70;;;6.40;99.90;;;;;;5053461;28;20055;-55
2023/01/10 13:35:14;;;;;;;19.98;5.32;;;6.40;99.90;;;;;;5054067;28;20044;-54
2023/01/10 13:37:42;;;;;;;29.15;6.85;;;6.30;99.90;;;;;;5052789;28;20045;-55
2023/01/10 13:40:19;;;;;;;29.88;5.63;;;6.20;99.90;;;;;;5054379;28;20289;-53
2023/01/10 13:45:30;;;;;;;28.40;6.05;;;6.30;99.90;;;;;;5054062;28;20036;-55